createdAt,value
2023-04-02T00:09:15.954Z,83.32
2023-04-02T00:14:33.618Z,83.39
2023-04-02T00:25:19.038Z,83.52
2023-04-02T00:30:22.937Z,83.63
2023-04-02T00:35:29.076Z,83.61
2023-04-02T00:40:42.382Z,83.64
2023-04-02T00:45:56.986Z,83.72
2023-04-02T00:51:14.573Z,83.73
2023-04-02T00:56:27.404Z,83.85
2023-04-02T01:01:37.826Z,83.80
2023-04-02T01:06:43.870Z,83.81
2023-04-02T01:12:32.050Z,83.82
2023-04-02T01:18:13.683Z,83.81
2023-04-02T01:24:08.150Z,83.94
2023-04-02T01:29:29.277Z,83.96
2023-04-02T01:34:33.262Z,84.07
2023-04-02T01:40:08.642Z,84.04
2023-04-02T01:45:17.122Z,84.13
2023-04-02T01:50:19.629Z,84.13
2023-04-02T01:55:44.405Z,84.10
2023-04-02T02:00:55.805Z,84.13
2023-04-02T02:06:03.975Z,84.09
2023-04-02T02:11:14.223Z,84.11
2023-04-02T02:16:18.127Z,84.10
2023-04-02T02:21:50.567Z,84.07
2023-04-02T02:27:16.529Z,84.11
2023-04-02T02:32:23.987Z,84.10
2023-04-02T02:37:34.967Z,84.09
2023-04-02T02:42:49.542Z,84.10
2023-04-02T02:47:57.731Z,84.15
2023-04-02T02:53:17.035Z,84.10
2023-04-02T02:58:27.977Z,84.10
2023-04-02T03:03:34.614Z,84.04
2023-04-02T03:09:04.437Z,84.05
2023-04-02T03:14:24.081Z,84.07
2023-04-02T03:20:01.525Z,84.01
2023-04-02T03:25:37.159Z,84.04
2023-04-02T03:31:04.188Z,83.97
2023-04-02T03:36:19.005Z,84.06
2023-04-02T03:41:42.816Z,84.06
2023-04-02T03:46:58.915Z,83.97
2023-04-02T03:52:14.970Z,84.05
2023-04-02T03:57:38.389Z,84.06
2023-04-02T04:02:52.565Z,84.12
2023-04-02T04:08:06.399Z,84.05
2023-04-02T04:13:20.347Z,84.05
2023-04-02T04:18:41.023Z,84.14
2023-04-02T04:23:51.011Z,84.18
2023-04-02T04:29:24.856Z,84.33
2023-04-02T04:34:47.279Z,84.32
2023-04-02T04:39:59.253Z,84.43
2023-04-02T04:45:12.472Z,84.44
2023-04-02T04:50:30.326Z,84.56
2023-04-02T04:56:18.675Z,84.61
2023-04-02T05:01:44.391Z,84.61
2023-04-02T05:07:15.655Z,84.62
2023-04-02T05:12:42.305Z,84.63
2023-04-02T05:18:30.502Z,84.60
2023-04-02T05:24:05.027Z,84.60
2023-04-02T05:29:26.615Z,84.60
2023-04-02T05:34:39.137Z,84.56
2023-04-02T05:39:46.006Z,84.50
2023-04-02T05:45:26.991Z,84.53
2023-04-02T05:50:37.506Z,84.42
2023-04-02T05:56:01.657Z,84.50
2023-04-02T06:01:17.941Z,84.40
2023-04-02T06:06:46.617Z,84.42
2023-04-02T06:12:13.451Z,84.33
2023-04-02T06:17:19.401Z,84.38
2023-04-02T06:22:38.406Z,84.39
2023-04-02T06:27:44.200Z,84.36
2023-04-02T06:32:48.886Z,84.39
2023-04-02T06:37:57.471Z,84.33
2023-04-02T06:43:11.767Z,84.32
2023-04-02T06:48:22.115Z,84.36
2023-04-02T06:53:36.880Z,84.28
2023-04-02T06:58:39.495Z,84.31
2023-04-02T07:03:44.066Z,84.33
2023-04-02T07:08:48.086Z,84.21
2023-04-02T07:13:51.058Z,83.96
2023-04-02T07:18:56.966Z,83.93
2023-04-02T07:23:59.540Z,83.88
2023-04-02T07:29:08.255Z,83.91
2023-04-02T07:34:11.251Z,83.82
2023-04-02T07:39:16.568Z,83.73
2023-04-02T07:44:19.502Z,83.74
2023-04-02T07:49:26.749Z,83.67
2023-04-02T07:54:33.610Z,83.65
2023-04-02T07:59:36.472Z,83.53
2023-04-02T08:04:39.140Z,83.46
2023-04-02T08:09:41.701Z,83.29
2023-04-02T08:14:44.472Z,83.24
2023-04-02T08:19:55.189Z,83.16
2023-04-02T08:24:58.231Z,83.11
2023-04-02T08:30:01.066Z,83.03
2023-04-02T08:35:06.271Z,82.85
2023-04-02T08:40:31.067Z,82.84
2023-04-02T08:46:22.086Z,82.86
2023-04-02T08:51:30.778Z,82.71
2023-04-02T08:56:47.148Z,82.75
2023-04-02T09:02:39.496Z,82.61
2023-04-02T09:07:42.432Z,82.58
2023-04-02T09:12:52.452Z,82.63
2023-04-02T09:18:11.811Z,82.49
2023-04-02T09:23:21.022Z,82.42
2023-04-02T09:28:24.384Z,82.39
2023-04-02T09:33:48.989Z,82.29
2023-04-02T09:39:06.428Z,82.03
2023-04-02T09:44:30.376Z,82.15
2023-04-02T09:49:37.943Z,81.91
2023-04-02T09:54:43.426Z,81.71
2023-04-02T09:59:47.569Z,81.67
2023-04-02T10:04:50.986Z,81.50
2023-04-02T10:10:29.209Z,81.40
2023-04-02T10:15:42.440Z,81.37
2023-04-02T10:20:52.036Z,81.06
2023-04-02T10:26:50.372Z,80.82
2023-04-02T10:32:14.518Z,80.79
2023-04-02T10:37:53.073Z,80.18
2023-04-02T10:43:36.595Z,79.71
2023-04-02T10:49:27.706Z,79.54
2023-04-02T10:54:44.063Z,79.21
2023-04-02T10:59:56.308Z,78.69
2023-04-02T11:05:07.195Z,77.94
2023-04-02T11:10:19.642Z,77.18
2023-04-02T11:15:38.130Z,76.38
2023-04-02T11:20:50.147Z,76.37
2023-04-02T11:26:28.382Z,75.91
2023-04-02T11:31:32.668Z,74.63
2023-04-02T11:36:53.769Z,73.50
2023-04-02T11:42:21.424Z,73.33
2023-04-02T11:47:29.911Z,72.87
2023-04-02T11:52:45.422Z,72.00
2023-04-02T11:58:20.666Z,71.15
2023-04-02T12:03:59.159Z,71.11
2023-04-02T12:09:22.582Z,70.23
2023-04-02T12:14:46.288Z,69.26
2023-04-02T12:19:52.771Z,68.68
2023-04-02T12:25:18.188Z,67.29
2023-04-02T12:30:23.642Z,67.05
2023-04-02T12:35:34.041Z,67.11
2023-04-02T12:40:38.847Z,67.23
2023-04-02T12:45:41.594Z,66.81
2023-04-02T12:50:47.894Z,66.79
2023-04-02T12:55:53.217Z,66.13
2023-04-02T13:01:20.497Z,65.36
2023-04-02T13:06:27.178Z,64.40
2023-04-02T13:11:38.380Z,63.07
2023-04-02T13:17:08.288Z,62.65
2023-04-02T13:22:31.766Z,61.85
2023-04-02T13:27:34.561Z,62.69
2023-04-02T13:32:39.318Z,62.13
2023-04-02T13:37:42.001Z,61.10
2023-04-02T13:42:47.073Z,61.51
2023-04-02T13:47:50.654Z,60.96
2023-04-02T13:52:57.815Z,60.24
2023-04-02T13:58:00.671Z,59.27
2023-04-02T14:03:13.058Z,58.81
2023-04-02T14:09:09.389Z,58.37
2023-04-02T14:14:42.792Z,58.51
2023-04-02T14:20:14.180Z,57.90
2023-04-02T14:26:02.080Z,57.17
2023-04-02T14:31:43.406Z,57.19
2023-04-02T14:37:34.831Z,56.19
2023-04-02T14:43:03.168Z,56.21
2023-04-02T14:48:21.236Z,56.08
2023-04-02T14:53:37.441Z,55.06
2023-04-02T14:58:48.748Z,54.22
2023-04-02T15:04:06.563Z,54.85
2023-04-02T15:09:26.003Z,54.63
2023-04-02T15:15:01.228Z,54.69
2023-04-02T15:20:15.954Z,54.37
2023-04-02T15:25:42.250Z,53.51
2023-04-02T15:30:47.167Z,52.72
2023-04-02T15:36:05.647Z,52.74
2023-04-02T15:41:46.086Z,52.17
2023-04-02T15:47:18.498Z,51.94
2023-04-02T15:53:03.327Z,51.63
2023-04-02T15:58:24.156Z,50.62
2023-04-02T16:04:12.821Z,50.87
2023-04-02T16:09:30.606Z,50.69
2023-04-02T16:14:46.746Z,49.42
2023-04-02T16:20:17.290Z,49.71
2023-04-02T16:25:24.435Z,49.57
2023-04-02T16:30:44.261Z,48.74
2023-04-02T16:36:27.009Z,47.60
2023-04-02T16:42:32.384Z,47.22
2023-04-02T16:48:12.535Z,46.10
2023-04-02T16:54:00.984Z,45.10
2023-04-02T16:59:33.106Z,44.84
2023-04-02T17:05:07.184Z,44.63
2023-04-02T17:10:31.425Z,45.12
2023-04-02T17:15:39.402Z,44.94
2023-04-02T17:20:42.341Z,45.19
2023-04-02T17:25:58.139Z,45.66
2023-04-02T17:31:01.649Z,46.04
2023-04-02T17:36:15.613Z,46.88
2023-04-02T17:41:42.537Z,47.71
2023-04-02T17:47:16.494Z,48.45
2023-04-02T17:53:01.516Z,49.03
2023-04-02T17:58:40.530Z,49.54
2023-04-02T18:04:01.230Z,50.02
2023-04-02T18:09:29.492Z,50.38
2023-04-02T18:14:48.773Z,50.78
2023-04-02T18:20:03.877Z,51.10
2023-04-02T18:25:55.665Z,51.76
2023-04-02T18:31:29.716Z,52.22
2023-04-02T18:37:01.143Z,52.52
2023-04-02T18:42:45.838Z,53.15
2023-04-02T18:48:04.289Z,53.38
2023-04-02T18:53:20.533Z,53.85
2023-04-02T18:58:33.099Z,54.36
2023-04-02T19:04:08.934Z,54.62
2023-04-02T19:09:26.097Z,55.06
2023-04-02T19:14:31.813Z,55.54
2023-04-02T19:19:56.194Z,55.89
2023-04-02T19:25:44.582Z,56.37
2023-04-02T19:31:23.221Z,56.67
2023-04-02T19:36:48.813Z,57.33
2023-04-02T19:42:00.226Z,57.78
2023-04-02T19:47:03.305Z,57.92
2023-04-02T19:52:08.749Z,58.15
2023-04-02T19:57:17.490Z,58.87
2023-04-02T20:02:20.222Z,59.01
2023-04-02T20:07:23.067Z,59.33
2023-04-02T20:12:28.754Z,59.53
2023-04-02T20:17:31.438Z,59.82
2023-04-02T20:22:34.215Z,60.23
2023-04-02T20:27:36.842Z,60.33
2023-04-02T20:32:41.404Z,60.33
2023-04-02T20:37:49.935Z,60.81
2023-04-02T20:42:53.455Z,61.03
2023-04-02T20:47:56.733Z,60.99
2023-04-02T20:53:03.979Z,61.04
2023-04-02T20:58:06.598Z,61.24
2023-04-02T21:03:11.274Z,61.28
2023-04-02T21:08:14.666Z,61.54
2023-04-02T21:13:17.257Z,61.80
2023-04-02T21:18:19.788Z,61.95
2023-04-02T21:23:24.351Z,62.35
2023-04-02T21:28:28.616Z,62.33
2023-04-02T21:33:38.373Z,62.22
2023-04-02T21:38:47.522Z,62.40
2023-04-02T21:43:50.970Z,62.51
2023-04-02T21:48:59.052Z,62.53
2023-04-02T21:54:03.349Z,62.88
2023-04-02T21:59:09.133Z,63.08
2023-04-02T22:04:24.549Z,63.35
2023-04-02T22:09:29.539Z,63.40
2023-04-02T22:14:36.003Z,63.69
2023-04-02T22:19:38.688Z,63.81
2023-04-02T22:24:41.243Z,63.87
2023-04-02T22:29:43.877Z,63.97
2023-04-02T22:34:46.732Z,64.07
2023-04-02T22:39:49.366Z,64.08
2023-04-02T22:44:58.301Z,63.96
2023-04-02T22:50:02.086Z,63.89
2023-04-02T22:55:06.399Z,63.83
2023-04-02T23:00:15.122Z,63.80
2023-04-02T23:05:17.860Z,63.74
2023-04-02T23:10:23.359Z,63.64
2023-04-02T23:15:31.888Z,63.58
2023-04-02T23:20:37.745Z,63.51
2023-04-02T23:25:41.319Z,63.47
2023-04-02T23:30:44.286Z,63.40
2023-04-02T23:35:47.859Z,63.37
2023-04-02T23:40:50.500Z,63.30
2023-04-02T23:45:57.664Z,63.26
2023-04-02T23:51:00.400Z,63.27
2023-04-02T23:56:03.426Z,63.12
